sensor_id;sensor_type;location;lat;lon;timestamp;pressure;altitude;pressure_sealevel;temperature;humidity
47742;BME280;33504;52.066;6.096;2023-03-03T00:01:30;102443.65;;;5.24;44.39
47742;BME280;33504;52.066;6.096;2023-03-03T00:03:58;102443.54;;;5.02;44.53
47742;BME280;33504;52.066;6.096;2023-03-03T00:06:26;102445.32;;;4.69;44.93
47742;BME280;33504;52.066;6.096;2023-03-03T00:08:53;102445.96;;;4.96;44.39
47742;BME280;33504;52.066;6.096;2023-03-03T00:11:20;102446.93;;;5.14;44.01
47742;BME280;33504;52.066;6.096;2023-03-03T00:13:49;102451.35;;;5.05;44.25
47742;BME280;33504;52.066;6.096;2023-03-03T00:16:22;102447.45;;;4.89;44.77
47742;BME280;33504;52.066;6.096;2023-03-03T00:18:51;102452.59;;;4.63;44.68
47742;BME280;33504;52.066;6.096;2023-03-03T00:21:24;102454.00;;;4.73;44.63
47742;BME280;33504;52.066;6.096;2023-03-03T00:23:51;102457.59;;;3.62;46.21
47742;BME280;33504;52.066;6.096;2023-03-03T00:26:21;102455.99;;;4.63;45.18
47742;BME280;33504;52.066;6.096;2023-03-03T00:28:50;102459.35;;;4.13;45.47
47742;BME280;33504;52.066;6.096;2023-03-03T00:31:19;102460.00;;;3.85;45.75
47742;BME280;33504;52.066;6.096;2023-03-03T00:33:49;102461.23;;;4.36;45.32
47742;BME280;33504;52.066;6.096;2023-03-03T00:36:29;102463.38;;;3.99;45.99
47742;BME280;33504;52.066;6.096;2023-03-03T00:39:16;102462.71;;;3.31;46.76
47742;BME280;33504;52.066;6.096;2023-03-03T00:41:43;102462.79;;;4.19;45.63
47742;BME280;33504;52.066;6.096;2023-03-03T00:44:43;102460.98;;;4.57;45.92
47742;BME280;33504;52.066;6.096;2023-03-03T00:47:29;102460.90;;;3.90;46.17
47742;BME280;33504;52.066;6.096;2023-03-03T00:50:16;102460.37;;;4.12;45.85
47742;BME280;33504;52.066;6.096;2023-03-03T00:52:50;102459.38;;;4.09;45.77
47742;BME280;33504;52.066;6.096;2023-03-03T00:55:19;102458.68;;;4.08;45.68
47742;BME280;33504;52.066;6.096;2023-03-03T00:57:46;102457.20;;;3.77;46.05
47742;BME280;33504;52.066;6.096;2023-03-03T01:00:14;102460.70;;;3.92;45.83
47742;BME280;33504;52.066;6.096;2023-03-03T01:02:41;102456.17;;;3.72;46.12
47742;BME280;33504;52.066;6.096;2023-03-03T01:05:09;102457.43;;;4.00;45.60
47742;BME280;33504;52.066;6.096;2023-03-03T01:07:38;102459.30;;;4.00;45.78
47742;BME280;33504;52.066;6.096;2023-03-03T01:10:07;102453.16;;;3.47;46.66
47742;BME280;33504;52.066;6.096;2023-03-03T01:12:34;102456.92;;;3.85;45.61
47742;BME280;33504;52.066;6.096;2023-03-03T01:15:02;102458.55;;;3.99;45.50
47742;BME280;33504;52.066;6.096;2023-03-03T01:17:30;102456.00;;;4.04;45.79
47742;BME280;33504;52.066;6.096;2023-03-03T01:19:57;102453.55;;;4.20;45.72
47742;BME280;33504;52.066;6.096;2023-03-03T01:22:24;102448.25;;;4.08;45.77
47742;BME280;33504;52.066;6.096;2023-03-03T01:24:51;102445.63;;;3.41;47.02
47742;BME280;33504;52.066;6.096;2023-03-03T01:27:19;102446.04;;;3.95;46.20
47742;BME280;33504;52.066;6.096;2023-03-03T01:29:46;102445.43;;;4.19;45.74
47742;BME280;33504;52.066;6.096;2023-03-03T01:32:13;102451.37;;;4.15;45.96
47742;BME280;33504;52.066;6.096;2023-03-03T01:34:40;102449.21;;;3.49;46.58
47742;BME280;33504;52.066;6.096;2023-03-03T01:37:07;102446.09;;;3.92;46.33
47742;BME280;33504;52.066;6.096;2023-03-03T01:39:34;102449.65;;;4.16;45.82
47742;BME280;33504;52.066;6.096;2023-03-03T01:42:03;102452.64;;;4.31;45.59
47742;BME280;33504;52.066;6.096;2023-03-03T01:44:30;102453.60;;;4.13;46.04
47742;BME280;33504;52.066;6.096;2023-03-03T01:47:01;102454.29;;;3.85;46.19
47742;BME280;33504;52.066;6.096;2023-03-03T01:49:34;102448.88;;;3.79;46.60
47742;BME280;33504;52.066;6.096;2023-03-03T01:52:09;102450.00;;;3.46;47.39
47742;BME280;33504;52.066;6.096;2023-03-03T01:54:42;102445.65;;;3.32;47.59
47742;BME280;33504;52.066;6.096;2023-03-03T01:57:14;102447.49;;;3.70;46.43
47742;BME280;33504;52.066;6.096;2023-03-03T01:59:46;102450.56;;;4.07;46.11
47742;BME280;33504;52.066;6.096;2023-03-03T02:02:15;102446.44;;;3.67;46.93
47742;BME280;33504;52.066;6.096;2023-03-03T02:04:42;102450.20;;;3.47;47.47
47742;BME280;33504;52.066;6.096;2023-03-03T02:07:10;102449.34;;;3.42;47.64
47742;BME280;33504;52.066;6.096;2023-03-03T02:09:45;102448.99;;;3.75;47.04
47742;BME280;33504;52.066;6.096;2023-03-03T02:12:16;102451.35;;;4.26;45.93
47742;BME280;33504;52.066;6.096;2023-03-03T02:14:43;102449.62;;;3.94;46.17
47742;BME280;33504;52.066;6.096;2023-03-03T02:17:10;102454.31;;;4.23;46.17
47742;BME280;33504;52.066;6.096;2023-03-03T02:19:42;102452.00;;;3.60;46.90
47742;BME280;33504;52.066;6.096;2023-03-03T02:22:14;102449.28;;;4.32;46.18
47742;BME280;33504;52.066;6.096;2023-03-03T02:24:47;102450.80;;;4.52;46.00
47742;BME280;33504;52.066;6.096;2023-03-03T02:27:16;102454.96;;;4.54;45.58
47742;BME280;33504;52.066;6.096;2023-03-03T02:29:43;102450.77;;;4.73;45.30
47742;BME280;33504;52.066;6.096;2023-03-03T02:32:10;102450.19;;;4.47;45.49
47742;BME280;33504;52.066;6.096;2023-03-03T02:34:53;102452.33;;;4.78;45.46
47742;BME280;33504;52.066;6.096;2023-03-03T02:37:20;102453.95;;;4.74;45.52
47742;BME280;33504;52.066;6.096;2023-03-03T02:39:47;102455.61;;;4.85;45.31
47742;BME280;33504;52.066;6.096;2023-03-03T02:42:18;102455.95;;;4.50;45.45
47742;BME280;33504;52.066;6.096;2023-03-03T02:44:47;102454.49;;;4.89;45.60
47742;BME280;33504;52.066;6.096;2023-03-03T02:47:15;102452.83;;;4.44;46.01
47742;BME280;33504;52.066;6.096;2023-03-03T02:49:42;102450.54;;;4.70;45.36
47742;BME280;33504;52.066;6.096;2023-03-03T02:52:10;102455.18;;;4.72;45.46
47742;BME280;33504;52.066;6.096;2023-03-03T02:54:37;102457.91;;;4.58;45.67
47742;BME280;33504;52.066;6.096;2023-03-03T02:57:05;102455.65;;;4.37;45.47
47742;BME280;33504;52.066;6.096;2023-03-03T02:59:32;102460.83;;;4.73;45.04
47742;BME280;33504;52.066;6.096;2023-03-03T03:02:00;102456.40;;;4.64;45.54
47742;BME280;33504;52.066;6.096;2023-03-03T03:04:27;102460.89;;;3.97;46.27
47742;BME280;33504;52.066;6.096;2023-03-03T03:06:55;102456.40;;;4.06;46.54
47742;BME280;33504;52.066;6.096;2023-03-03T03:09:23;102459.51;;;4.34;45.90
47742;BME280;33504;52.066;6.096;2023-03-03T03:11:50;102456.94;;;3.90;46.89
47742;BME280;33504;52.066;6.096;2023-03-03T03:14:18;102458.70;;;4.16;46.49
47742;BME280;33504;52.066;6.096;2023-03-03T03:16:45;102459.07;;;4.14;46.01
47742;BME280;33504;52.066;6.096;2023-03-03T03:19:12;102464.68;;;4.43;46.04
47742;BME280;33504;52.066;6.096;2023-03-03T03:21:39;102465.84;;;4.16;46.07
47742;BME280;33504;52.066;6.096;2023-03-03T03:24:07;102462.38;;;4.15;46.68
47742;BME280;33504;52.066;6.096;2023-03-03T03:26:34;102459.98;;;3.86;46.40
47742;BME280;33504;52.066;6.096;2023-03-03T03:29:01;102455.02;;;3.57;46.94
47742;BME280;33504;52.066;6.096;2023-03-03T03:31:28;102454.35;;;3.87;46.94
47742;BME280;33504;52.066;6.096;2023-03-03T03:33:55;102453.99;;;4.29;46.27
47742;BME280;33504;52.066;6.096;2023-03-03T03:36:22;102452.76;;;3.83;47.09
47742;BME280;33504;52.066;6.096;2023-03-03T03:38:50;102458.52;;;3.84;46.59
47742;BME280;33504;52.066;6.096;2023-03-03T03:41:16;102459.17;;;3.78;46.80
47742;BME280;33504;52.066;6.096;2023-03-03T03:43:44;102456.23;;;4.16;46.71
47742;BME280;33504;52.066;6.096;2023-03-03T03:46:11;102461.21;;;4.17;46.18
47742;BME280;33504;52.066;6.096;2023-03-03T03:48:38;102459.40;;;4.23;46.01
47742;BME280;33504;52.066;6.096;2023-03-03T03:51:05;102462.00;;;4.46;46.23
47742;BME280;33504;52.066;6.096;2023-03-03T03:53:32;102463.63;;;4.63;45.90
47742;BME280;33504;52.066;6.096;2023-03-03T03:55:59;102461.19;;;4.12;46.33
47742;BME280;33504;52.066;6.096;2023-03-03T03:58:26;102460.74;;;3.73;47.04
47742;BME280;33504;52.066;6.096;2023-03-03T04:00:53;102457.99;;;4.59;46.01
47742;BME280;33504;52.066;6.096;2023-03-03T04:03:20;102454.04;;;3.96;46.58
47742;BME280;33504;52.066;6.096;2023-03-03T04:05:47;102456.22;;;4.62;45.92
47742;BME280;33504;52.066;6.096;2023-03-03T04:08:14;102456.00;;;4.90;45.47
47742;BME280;33504;52.066;6.096;2023-03-03T04:10:41;102457.33;;;4.53;45.82
47742;BME280;33504;52.066;6.096;2023-03-03T04:13:09;102458.04;;;4.78;45.27
47742;BME280;33504;52.066;6.096;2023-03-03T04:15:36;102460.86;;;4.95;45.39
47742;BME280;33504;52.066;6.096;2023-03-03T04:18:03;102457.64;;;4.54;45.12
47742;BME280;33504;52.066;6.096;2023-03-03T04:20:30;102457.61;;;4.57;45.34
47742;BME280;33504;52.066;6.096;2023-03-03T04:22:57;102463.83;;;4.74;45.17
47742;BME280;33504;52.066;6.096;2023-03-03T04:25:24;102463.02;;;4.69;44.77
47742;BME280;33504;52.066;6.096;2023-03-03T04:27:51;102464.70;;;4.99;44.77
47742;BME280;33504;52.066;6.096;2023-03-03T04:30:19;102461.82;;;5.02;44.65
47742;BME280;33504;52.066;6.096;2023-03-03T04:32:46;102462.60;;;4.83;44.82
47742;BME280;33504;52.066;6.096;2023-03-03T04:35:14;102458.75;;;4.96;44.62
47742;BME280;33504;52.066;6.096;2023-03-03T04:37:41;102461.50;;;4.69;44.82
47742;BME280;33504;52.066;6.096;2023-03-03T04:40:10;102459.10;;;4.31;45.11
47742;BME280;33504;52.066;6.096;2023-03-03T04:42:36;102460.59;;;4.24;45.67
47742;BME280;33504;52.066;6.096;2023-03-03T04:45:04;102458.10;;;4.65;45.46
47742;BME280;33504;52.066;6.096;2023-03-03T04:47:32;102459.87;;;4.38;45.50
47742;BME280;33504;52.066;6.096;2023-03-03T04:49:59;102460.46;;;4.38;45.18
47742;BME280;33504;52.066;6.096;2023-03-03T04:52:27;102459.72;;;4.83;44.88
47742;BME280;33504;52.066;6.096;2023-03-03T04:54:54;102458.56;;;4.95;44.64
47742;BME280;33504;52.066;6.096;2023-03-03T04:57:21;102458.64;;;4.91;44.78
47742;BME280;33504;52.066;6.096;2023-03-03T04:59:48;102458.46;;;5.09;44.52
47742;BME280;33504;52.066;6.096;2023-03-03T05:02:15;102459.04;;;4.88;44.58
47742;BME280;33504;52.066;6.096;2023-03-03T05:04:42;102460.23;;;4.83;44.63
47742;BME280;33504;52.066;6.096;2023-03-03T05:07:09;102466.31;;;4.96;44.33
47742;BME280;33504;52.066;6.096;2023-03-03T05:09:36;102463.68;;;4.98;44.12
47742;BME280;33504;52.066;6.096;2023-03-03T05:12:04;102466.05;;;5.04;44.27
47742;BME280;33504;52.066;6.096;2023-03-03T05:14:32;102469.75;;;5.03;44.33
47742;BME280;33504;52.066;6.096;2023-03-03T05:16:59;102471.62;;;4.85;44.50
47742;BME280;33504;52.066;6.096;2023-03-03T05:19:26;102470.77;;;4.93;44.26
47742;BME280;33504;52.066;6.096;2023-03-03T05:21:53;102471.23;;;5.02;44.67
47742;BME280;33504;52.066;6.096;2023-03-03T05:24:20;102471.61;;;4.71;44.86
47742;BME280;33504;52.066;6.096;2023-03-03T05:26:46;102472.16;;;4.71;44.69
47742;BME280;33504;52.066;6.096;2023-03-03T05:29:14;102476.08;;;4.73;44.69
47742;BME280;33504;52.066;6.096;2023-03-03T05:31:41;102477.56;;;4.37;45.58
47742;BME280;33504;52.066;6.096;2023-03-03T05:34:08;102480.48;;;4.81;45.02
47742;BME280;33504;52.066;6.096;2023-03-03T05:36:35;102480.80;;;4.71;44.63
47742;BME280;33504;52.066;6.096;2023-03-03T05:39:03;102480.83;;;4.57;45.19
47742;BME280;33504;52.066;6.096;2023-03-03T05:41:30;102483.16;;;4.68;44.86
47742;BME280;33504;52.066;6.096;2023-03-03T05:43:57;102484.65;;;4.68;44.99
47742;BME280;33504;52.066;6.096;2023-03-03T05:46:23;102487.15;;;4.64;45.69
47742;BME280;33504;52.066;6.096;2023-03-03T05:48:51;102489.17;;;4.49;45.88
47742;BME280;33504;52.066;6.096;2023-03-03T05:51:18;102488.16;;;4.78;45.28
47742;BME280;33504;52.066;6.096;2023-03-03T05:53:45;102487.67;;;4.87;45.24
47742;BME280;33504;52.066;6.096;2023-03-03T05:56:12;102485.82;;;4.95;45.12
47742;BME280;33504;52.066;6.096;2023-03-03T05:58:39;102488.81;;;4.97;45.21
47742;BME280;33504;52.066;6.096;2023-03-03T06:01:06;102488.28;;;4.89;45.10
47742;BME280;33504;52.066;6.096;2023-03-03T06:03:33;102490.99;;;5.10;45.09
47742;BME280;33504;52.066;6.096;2023-03-03T06:06:01;102490.77;;;4.75;45.42
47742;BME280;33504;52.066;6.096;2023-03-03T06:08:28;102491.57;;;4.96;45.29
47742;BME280;33504;52.066;6.096;2023-03-03T06:10:55;102492.71;;;4.82;45.72
47742;BME280;33504;52.066;6.096;2023-03-03T06:13:23;102497.04;;;4.98;45.33
47742;BME280;33504;52.066;6.096;2023-03-03T06:15:50;102498.67;;;4.79;45.35
47742;BME280;33504;52.066;6.096;2023-03-03T06:18:17;102497.69;;;4.82;45.24
47742;BME280;33504;52.066;6.096;2023-03-03T06:20:44;102500.32;;;4.39;45.69
47742;BME280;33504;52.066;6.096;2023-03-03T06:23:11;102502.59;;;4.81;46.31
47742;BME280;33504;52.066;6.096;2023-03-03T06:25:38;102503.14;;;4.60;45.67
47742;BME280;33504;52.066;6.096;2023-03-03T06:28:05;102503.64;;;4.94;45.59
47742;BME280;33504;52.066;6.096;2023-03-03T06:30:32;102505.11;;;4.83;45.76
47742;BME280;33504;52.066;6.096;2023-03-03T06:32:59;102502.07;;;4.93;45.68
47742;BME280;33504;52.066;6.096;2023-03-03T06:35:26;102506.34;;;5.00;45.43
47742;BME280;33504;52.066;6.096;2023-03-03T06:37:52;102503.77;;;4.77;45.57
47742;BME280;33504;52.066;6.096;2023-03-03T06:40:19;102503.58;;;5.01;45.62
47742;BME280;33504;52.066;6.096;2023-03-03T06:42:46;102504.45;;;5.01;45.74
47742;BME280;33504;52.066;6.096;2023-03-03T06:45:14;102507.41;;;5.34;45.71
47742;BME280;33504;52.066;6.096;2023-03-03T06:47:41;102513.72;;;4.67;45.66
47742;BME280;33504;52.066;6.096;2023-03-03T06:50:09;102514.44;;;4.92;45.67
47742;BME280;33504;52.066;6.096;2023-03-03T06:52:37;102516.84;;;4.96;45.69
47742;BME280;33504;52.066;6.096;2023-03-03T06:55:12;102520.18;;;5.07;46.03
47742;BME280;33504;52.066;6.096;2023-03-03T06:57:42;102524.28;;;4.92;46.11
47742;BME280;33504;52.066;6.096;2023-03-03T07:00:15;102523.27;;;5.03;46.20
47742;BME280;33504;52.066;6.096;2023-03-03T07:02:43;102526.27;;;5.37;46.21
47742;BME280;33504;52.066;6.096;2023-03-03T07:05:14;102526.57;;;4.96;45.99
47742;BME280;33504;52.066;6.096;2023-03-03T07:07:42;102530.26;;;4.99;46.03
47742;BME280;33504;52.066;6.096;2023-03-03T07:10:19;102533.00;;;4.99;46.01
47742;BME280;33504;52.066;6.096;2023-03-03T07:12:48;102536.71;;;4.98;46.02
47742;BME280;33504;52.066;6.096;2023-03-03T07:15:16;102537.01;;;4.90;46.24
47742;BME280;33504;52.066;6.096;2023-03-03T07:17:47;102539.22;;;4.99;46.16
47742;BME280;33504;52.066;6.096;2023-03-03T07:20:19;102542.39;;;5.06;46.18
47742;BME280;33504;52.066;6.096;2023-03-03T07:22:47;102543.70;;;4.82;46.64
47742;BME280;33504;52.066;6.096;2023-03-03T07:25:20;102546.92;;;4.55;47.14
47742;BME280;33504;52.066;6.096;2023-03-03T07:27:48;102550.91;;;5.25;46.29
47742;BME280;33504;52.066;6.096;2023-03-03T07:30:23;102552.53;;;5.14;46.23
47742;BME280;33504;52.066;6.096;2023-03-03T07:32:52;102556.09;;;5.12;46.25
47742;BME280;33504;52.066;6.096;2023-03-03T07:35:28;102558.60;;;5.12;46.27
47742;BME280;33504;52.066;6.096;2023-03-03T07:37:58;102565.73;;;4.89;46.85
47742;BME280;33504;52.066;6.096;2023-03-03T07:40:34;102567.47;;;5.17;46.40
47742;BME280;33504;52.066;6.096;2023-03-03T07:43:16;102564.77;;;5.55;46.24
47742;BME280;33504;52.066;6.096;2023-03-03T07:45:50;102568.00;;;5.16;46.95
47742;BME280;33504;52.066;6.096;2023-03-03T07:48:30;102568.79;;;5.14;46.63
47742;BME280;33504;52.066;6.096;2023-03-03T07:51:04;102574.50;;;5.21;46.65
47742;BME280;33504;52.066;6.096;2023-03-03T07:53:33;102573.50;;;5.34;46.48
47742;BME280;33504;52.066;6.096;2023-03-03T07:56:01;102572.44;;;4.80;47.35
47742;BME280;33504;52.066;6.096;2023-03-03T07:58:36;102576.67;;;5.11;46.74
47742;BME280;33504;52.066;6.096;2023-03-03T08:02:04;102582.81;;;5.86;46.92
47742;BME280;33504;52.066;6.096;2023-03-03T08:04:40;102587.45;;;5.01;47.19
47742;BME280;33504;52.066;6.096;2023-03-03T08:07:10;102592.73;;;5.15;46.43
47742;BME280;33504;52.066;6.096;2023-03-03T08:09:45;102592.57;;;5.57;46.60
47742;BME280;33504;52.066;6.096;2023-03-03T08:12:46;102595.33;;;6.05;46.63
47742;BME280;33504;52.066;6.096;2023-03-03T08:15:18;102595.32;;;5.29;46.74
47742;BME280;33504;52.066;6.096;2023-03-03T08:17:46;102598.91;;;5.19;46.98
47742;BME280;33504;52.066;6.096;2023-03-03T08:20:48;102602.77;;;5.89;46.89
47742;BME280;33504;52.066;6.096;2023-03-03T08:23:17;102607.02;;;5.02;46.99
47742;BME280;33504;52.066;6.096;2023-03-03T08:25:45;102609.35;;;5.19;46.63
47742;BME280;33504;52.066;6.096;2023-03-03T08:28:13;102612.22;;;5.00;46.96
47742;BME280;33504;52.066;6.096;2023-03-03T08:30:41;102614.15;;;5.24;46.73
47742;BME280;33504;52.066;6.096;2023-03-03T08:33:08;102612.84;;;5.14;46.86
47742;BME280;33504;52.066;6.096;2023-03-03T08:35:35;102616.74;;;5.51;46.41
47742;BME280;33504;52.066;6.096;2023-03-03T08:38:04;102612.68;;;5.52;46.21
47742;BME280;33504;52.066;6.096;2023-03-03T08:40:32;102608.51;;;5.82;46.20
47742;BME280;33504;52.066;6.096;2023-03-03T08:43:00;102609.79;;;5.58;46.51
47742;BME280;33504;52.066;6.096;2023-03-03T08:45:27;102612.99;;;5.38;45.95
47742;BME280;33504;52.066;6.096;2023-03-03T08:48:10;102612.43;;;5.36;46.08
47742;BME280;33504;52.066;6.096;2023-03-03T08:50:38;102611.97;;;6.08;45.44
47742;BME280;33504;52.066;6.096;2023-03-03T08:53:06;102611.60;;;5.97;45.30
47742;BME280;33504;52.066;6.096;2023-03-03T08:55:33;102611.93;;;6.13;45.03
47742;BME280;33504;52.066;6.096;2023-03-03T08:58:00;102611.94;;;5.99;45.04
47742;BME280;33504;52.066;6.096;2023-03-03T09:00:27;102612.02;;;6.25;44.75
47742;BME280;33504;52.066;6.096;2023-03-03T09:02:54;102615.30;;;6.13;44.83
47742;BME280;33504;52.066;6.096;2023-03-03T09:05:22;102612.54;;;6.39;44.43
47742;BME280;33504;52.066;6.096;2023-03-03T09:07:52;102614.82;;;6.22;44.49
47742;BME280;33504;52.066;6.096;2023-03-03T09:10:22;102613.26;;;6.11;44.53
47742;BME280;33504;52.066;6.096;2023-03-03T09:12:49;102611.86;;;6.28;44.30
47742;BME280;33504;52.066;6.096;2023-03-03T09:15:20;102614.49;;;6.74;44.09
47742;BME280;33504;52.066;6.096;2023-03-03T09:17:49;102611.23;;;6.59;43.77
47742;BME280;33504;52.066;6.096;2023-03-03T09:20:27;102611.31;;;7.08;43.51
47742;BME280;33504;52.066;6.096;2023-03-03T09:22:56;102612.21;;;6.94;43.52
47742;BME280;33504;52.066;6.096;2023-03-03T09:25:30;102609.11;;;6.80;43.16
47742;BME280;33504;52.066;6.096;2023-03-03T09:27:58;102611.32;;;6.87;43.15
47742;BME280;33504;52.066;6.096;2023-03-03T09:30:35;102608.57;;;7.11;42.26
47742;BME280;33504;52.066;6.096;2023-03-03T09:33:22;102610.79;;;7.07;42.14
47742;BME280;33504;52.066;6.096;2023-03-03T09:35:51;102608.87;;;7.00;42.14
47742;BME280;33504;52.066;6.096;2023-03-03T09:38:26;102613.52;;;7.21;41.96
47742;BME280;33504;52.066;6.096;2023-03-03T09:41:06;102614.99;;;7.34;41.98
47742;BME280;33504;52.066;6.096;2023-03-03T09:43:44;102618.90;;;7.63;41.79
47742;BME280;33504;52.066;6.096;2023-03-03T09:46:18;102623.37;;;7.55;41.65
47742;BME280;33504;52.066;6.096;2023-03-03T09:49:01;102621.60;;;7.28;41.49
47742;BME280;33504;52.066;6.096;2023-03-03T09:51:40;102622.02;;;7.20;41.32
47742;BME280;33504;52.066;6.096;2023-03-03T09:54:22;102620.98;;;7.67;41.24
47742;BME280;33504;52.066;6.096;2023-03-03T09:57:04;102624.33;;;7.66;40.86
47742;BME280;33504;52.066;6.096;2023-03-03T09:59:43;102620.19;;;7.95;40.47
47742;BME280;33504;52.066;6.096;2023-03-03T10:02:29;102622.91;;;7.78;40.03
47742;BME280;33504;52.066;6.096;2023-03-03T10:05:10;102619.95;;;8.53;39.66
47742;BME280;33504;52.066;6.096;2023-03-03T10:07:45;102624.68;;;8.55;39.52
47742;BME280;33504;52.066;6.096;2023-03-03T10:10:24;102626.95;;;9.72;37.97
47742;BME280;33504;52.066;6.096;2023-03-03T10:13:04;102629.38;;;9.54;37.59
47742;BME280;33504;52.066;6.096;2023-03-03T10:15:40;102629.51;;;9.32;37.37
47742;BME280;33504;52.066;6.096;2023-03-03T10:18:20;102626.22;;;9.90;37.20
47742;BME280;33504;52.066;6.096;2023-03-03T10:20:59;102629.31;;;9.90;37.28
47742;BME280;33504;52.066;6.096;2023-03-03T10:23:43;102626.76;;;9.71;36.87
47742;BME280;33504;52.066;6.096;2023-03-03T10:26:18;102630.01;;;9.53;37.00
47742;BME280;33504;52.066;6.096;2023-03-03T10:28:57;102629.66;;;9.86;36.76
47742;BME280;33504;52.066;6.096;2023-03-03T10:31:37;102625.11;;;11.15;35.58
47742;BME280;33504;52.066;6.096;2023-03-03T10:34:20;102624.46;;;11.40;33.77
47742;BME280;33504;52.066;6.096;2023-03-03T10:36:55;102625.32;;;10.99;33.59
47742;BME280;33504;52.066;6.096;2023-03-03T10:39:40;102629.18;;;11.40;34.01
47742;BME280;33504;52.066;6.096;2023-03-03T10:42:24;102626.41;;;11.69;33.27
47742;BME280;33504;52.066;6.096;2023-03-03T10:45:06;102622.97;;;12.98;32.27
47742;BME280;33504;52.066;6.096;2023-03-03T10:47:57;102621.41;;;13.05;31.24
47742;BME280;33504;52.066;6.096;2023-03-03T10:50:34;102622.31;;;13.62;30.90
47742;BME280;33504;52.066;6.096;2023-03-03T10:53:20;102620.85;;;14.47;29.76
47742;BME280;33504;52.066;6.096;2023-03-03T10:55:59;102621.57;;;15.09;28.93
47742;BME280;33504;52.066;6.096;2023-03-03T10:58:38;102619.63;;;15.86;28.20
47742;BME280;33504;52.066;6.096;2023-03-03T11:01:16;102613.49;;;16.65;27.48
47742;BME280;33504;52.066;6.096;2023-03-03T11:04:01;102610.90;;;17.08;25.87
47742;BME280;33504;52.066;6.096;2023-03-03T11:06:39;102608.00;;;17.33;26.35
47742;BME280;33504;52.066;6.096;2023-03-03T11:09:20;102609.48;;;17.68;24.97
47742;BME280;33504;52.066;6.096;2023-03-03T11:11:54;102609.66;;;18.11;24.72
47742;BME280;33504;52.066;6.096;2023-03-03T11:14:30;102609.05;;;18.15;24.41
47742;BME280;33504;52.066;6.096;2023-03-03T11:17:04;102606.05;;;18.43;24.45
47742;BME280;33504;52.066;6.096;2023-03-03T11:19:47;102603.04;;;17.25;25.08
47742;BME280;33504;52.066;6.096;2023-03-03T11:22:27;102601.62;;;16.44;25.95
47742;BME280;33504;52.066;6.096;2023-03-03T11:25:02;102602.17;;;16.09;26.53
47742;BME280;33504;52.066;6.096;2023-03-03T11:27:52;102599.64;;;16.82;25.79
47742;BME280;33504;52.066;6.096;2023-03-03T11:30:33;102597.94;;;17.38;25.29
47742;BME280;33504;52.066;6.096;2023-03-03T11:33:06;102594.78;;;17.44;24.62
47742;BME280;33504;52.066;6.096;2023-03-03T11:35:42;102591.09;;;17.64;24.41
47742;BME280;33504;52.066;6.096;2023-03-03T11:38:27;102589.69;;;18.17;24.16
47742;BME280;33504;52.066;6.096;2023-03-03T11:41:01;102590.94;;;18.56;23.35
47742;BME280;33504;52.066;6.096;2023-03-03T11:43:31;102585.96;;;17.76;24.06
47742;BME280;33504;52.066;6.096;2023-03-03T11:46:05;102587.98;;;17.55;24.76
47742;BME280;33504;52.066;6.096;2023-03-03T11:48:38;102591.53;;;18.00;24.33
47742;BME280;33504;52.066;6.096;2023-03-03T11:51:13;102587.87;;;17.66;24.55
47742;BME280;33504;52.066;6.096;2023-03-03T11:53:53;102587.08;;;17.68;24.56
47742;BME280;33504;52.066;6.096;2023-03-03T11:56:27;102580.53;;;18.08;24.24
47742;BME280;33504;52.066;6.096;2023-03-03T11:59:04;102575.22;;;18.58;23.40
47742;BME280;33504;52.066;6.096;2023-03-03T12:01:40;102576.48;;;18.37;23.27
47742;BME280;33504;52.066;6.096;2023-03-03T12:04:11;102574.98;;;19.15;23.31
47742;BME280;33504;52.066;6.096;2023-03-03T12:06:54;102571.58;;;18.82;22.72
47742;BME280;33504;52.066;6.096;2023-03-03T12:09:32;102568.79;;;19.21;22.56
47742;BME280;33504;52.066;6.096;2023-03-03T12:12:06;102565.99;;;19.07;22.55
47742;BME280;33504;52.066;6.096;2023-03-03T12:14:46;102564.91;;;18.35;22.88
47742;BME280;33504;52.066;6.096;2023-03-03T12:17:27;102562.53;;;19.12;22.95
47742;BME280;33504;52.066;6.096;2023-03-03T12:20:08;102564.12;;;19.15;22.54
47742;BME280;33504;52.066;6.096;2023-03-03T12:22:42;102565.50;;;18.21;23.53
47742;BME280;33504;52.066;6.096;2023-03-03T12:25:22;102563.50;;;18.13;23.81
47742;BME280;33504;52.066;6.096;2023-03-03T12:27:57;102564.29;;;16.87;24.53
47742;BME280;33504;52.066;6.096;2023-03-03T12:30:39;102559.37;;;16.94;25.14
47742;BME280;33504;52.066;6.096;2023-03-03T12:33:16;102557.54;;;16.88;25.23
47742;BME280;33504;52.066;6.096;2023-03-03T12:35:52;102550.30;;;17.19;24.86
47742;BME280;33504;52.066;6.096;2023-03-03T12:38:29;102550.45;;;17.89;24.01
47742;BME280;33504;52.066;6.096;2023-03-03T12:41:06;102549.96;;;18.23;23.10
47742;BME280;33504;52.066;6.096;2023-03-03T12:43:45;102549.09;;;18.48;22.90
47742;BME280;33504;52.066;6.096;2023-03-03T12:46:20;102545.48;;;18.37;22.97
47742;BME280;33504;52.066;6.096;2023-03-03T12:48:49;102548.32;;;18.11;23.15
47742;BME280;33504;52.066;6.096;2023-03-03T12:51:25;102549.42;;;18.37;23.08
47742;BME280;33504;52.066;6.096;2023-03-03T12:54:15;102546.83;;;17.99;23.44
47742;BME280;33504;52.066;6.096;2023-03-03T12:56:48;102543.06;;;17.88;23.28
47742;BME280;33504;52.066;6.096;2023-03-03T12:59:24;102539.20;;;18.09;22.84
47742;BME280;33504;52.066;6.096;2023-03-03T13:02:10;102536.67;;;17.45;23.87
47742;BME280;33504;52.066;6.096;2023-03-03T13:04:50;102532.64;;;16.70;24.34
47742;BME280;33504;52.066;6.096;2023-03-03T13:07:24;102532.75;;;16.25;24.97
47742;BME280;33504;52.066;6.096;2023-03-03T13:10:03;102530.19;;;16.48;25.10
47742;BME280;33504;52.066;6.096;2023-03-03T13:12:40;102528.64;;;16.44;24.84
47742;BME280;33504;52.066;6.096;2023-03-03T13:15:14;102528.98;;;16.74;24.47
47742;BME280;33504;52.066;6.096;2023-03-03T13:17:52;102527.30;;;17.32;23.88
47742;BME280;33504;52.066;6.096;2023-03-03T13:20:31;102524.06;;;16.90;23.77
47742;BME280;33504;52.066;6.096;2023-03-03T13:23:07;102522.20;;;16.18;24.29